createdAt,value
2019-03-25T00:02:43.341Z,62.99
2019-03-25T00:06:49.678Z,63.42
2019-03-25T00:10:55.934Z,63.62
2019-03-25T00:15:02.484Z,63.73
2019-03-25T00:19:08.668Z,63.56
2019-03-25T00:23:14.995Z,64.06
2019-03-25T00:27:21.358Z,64.17
2019-03-25T00:31:27.731Z,64.04
2019-03-25T00:35:34.031Z,65.29
2019-03-25T00:39:40.297Z,64.82
2019-03-25T00:43:46.505Z,65.22
2019-03-25T00:47:52.806Z,64.99
2019-03-25T00:51:59.098Z,65.04
2019-03-25T00:56:05.405Z,65.02
2019-03-25T01:00:12.822Z,64.37
2019-03-25T01:04:21.204Z,63.85
2019-03-25T01:08:27.494Z,63.43
2019-03-25T01:12:33.803Z,64.42
2019-03-25T01:16:40.412Z,65.07
2019-03-25T01:20:46.757Z,64.97
2019-03-25T01:25:01.241Z,64.93
2019-03-25T01:29:01.281Z,64.30
2019-03-25T01:33:07.658Z,63.80
2019-03-25T01:37:13.828Z,63.85
2019-03-25T01:41:20.115Z,62.92
2019-03-25T01:45:26.389Z,63.66
2019-03-25T01:49:32.591Z,63.80
2019-03-25T01:53:38.843Z,63.69
2019-03-25T01:57:45.142Z,63.79
2019-03-25T02:01:51.400Z,63.73
2019-03-25T02:05:57.631Z,63.66
2019-03-25T02:10:04.188Z,63.43
2019-03-25T02:14:10.759Z,63.32
2019-03-25T02:18:17.366Z,63.92
2019-03-25T02:22:23.716Z,63.98
2019-03-25T02:26:30.017Z,64.56
2019-03-25T02:30:36.324Z,64.57
2019-03-25T02:34:42.630Z,64.42
2019-03-25T02:38:57.675Z,64.50
2019-03-25T02:43:03.961Z,64.52
2019-03-25T02:47:10.260Z,65.38
2019-03-25T02:51:16.530Z,64.98
2019-03-25T02:55:23.305Z,65.27
2019-03-25T02:59:29.511Z,65.12
2019-03-25T03:03:35.723Z,65.85
2019-03-25T03:07:42.055Z,65.83
2019-03-25T03:11:48.674Z,66.00
2019-03-25T03:15:54.983Z,66.05
2019-03-25T03:20:01.179Z,66.44
2019-03-25T03:24:07.422Z,66.89
2019-03-25T03:28:13.691Z,66.96
2019-03-25T03:32:19.939Z,67.33
2019-03-25T03:36:26.240Z,67.01
2019-03-25T03:40:32.518Z,67.30
2019-03-25T03:44:38.813Z,67.99
2019-03-25T03:48:45.100Z,67.30
2019-03-25T03:52:51.394Z,67.80
2019-03-25T03:56:58.062Z,68.39
2019-03-25T04:01:04.624Z,69.08
2019-03-25T04:05:10.906Z,69.29
2019-03-25T04:09:17.184Z,69.84
2019-03-25T04:13:23.570Z,69.83
2019-03-25T04:17:30.167Z,69.76
2019-03-25T04:21:36.462Z,70.89
2019-03-25T04:25:42.713Z,71.25
2019-03-25T04:29:48.907Z,71.53
2019-03-25T04:33:55.205Z,71.96
2019-03-25T04:38:01.328Z,72.07
2019-03-25T04:42:07.608Z,72.50
2019-03-25T04:46:13.903Z,73.62
2019-03-25T04:50:20.255Z,73.67
2019-03-25T04:54:26.893Z,74.08
2019-03-25T04:58:33.177Z,73.94
2019-03-25T05:02:39.456Z,73.68
2019-03-25T05:06:45.669Z,73.99
2019-03-25T05:10:51.966Z,73.43
2019-03-25T05:14:58.827Z,73.13
2019-03-25T05:19:05.444Z,73.26
2019-03-25T05:23:12.713Z,73.50
2019-03-25T05:27:19.055Z,73.82
2019-03-25T05:31:25.211Z,73.82
2019-03-25T05:35:31.565Z,73.85
2019-03-25T05:39:37.899Z,74.43
2019-03-25T05:43:44.281Z,74.50
2019-03-25T05:47:50.495Z,74.99
2019-03-25T05:51:57.747Z,74.35
2019-03-25T05:56:05.287Z,74.89
2019-03-25T06:00:12.352Z,74.39
2019-03-25T06:04:18.690Z,74.33
2019-03-25T06:08:26.275Z,74.50
2019-03-25T06:12:32.609Z,74.50
2019-03-25T06:16:40.120Z,73.94
2019-03-25T06:21:02.434Z,74.29
2019-03-25T06:25:09.406Z,73.29
2019-03-25T06:29:15.776Z,73.44
2019-03-25T06:33:22.424Z,73.48
2019-03-25T06:37:29.064Z,73.79
2019-03-25T06:41:35.427Z,72.94
2019-03-25T06:45:44.566Z,72.52
2019-03-25T06:49:51.432Z,71.82
2019-03-25T06:53:58.152Z,72.15
2019-03-25T06:58:06.153Z,72.47
2019-03-25T07:02:12.621Z,71.51
2019-03-25T07:06:19.224Z,71.69
2019-03-25T07:10:36.809Z,71.29
2019-03-25T07:14:44.346Z,70.67
2019-03-25T07:18:51.162Z,70.57
2019-03-25T07:23:02.858Z,71.20
2019-03-25T07:27:16.664Z,71.55
2019-03-25T07:31:23.388Z,70.92
2019-03-25T07:35:29.783Z,70.22
2019-03-25T07:39:38.059Z,68.96
2019-03-25T07:44:18.544Z,67.37
2019-03-25T07:49:48.691Z,65.36
2019-03-25T07:54:00.797Z,65.27
2019-03-25T07:59:17.561Z,65.46
2019-03-25T08:03:24.147Z,64.89
2019-03-25T08:07:31.530Z,64.66
2019-03-25T08:11:37.800Z,63.83
2019-03-25T08:15:44.131Z,64.86
2019-03-25T08:19:50.393Z,63.68
2019-03-25T08:23:56.941Z,64.50
2019-03-25T08:28:12.343Z,63.04
2019-03-25T08:32:18.643Z,63.05
2019-03-25T08:36:25.043Z,62.85
2019-03-25T08:40:31.339Z,62.97
2019-03-25T08:44:37.772Z,63.29
2019-03-25T08:48:44.075Z,62.74
2019-03-25T08:52:56.290Z,62.66
2019-03-25T08:57:02.628Z,61.74
2019-03-25T09:01:08.961Z,63.54
2019-03-25T09:05:15.475Z,65.26
2019-03-25T09:09:21.698Z,66.82
2019-03-25T09:13:29.113Z,67.81
2019-03-25T09:17:35.496Z,67.45
2019-03-25T09:21:42.142Z,67.20
2019-03-25T09:25:48.410Z,67.11
2019-03-25T09:30:57.107Z,66.84
2019-03-25T09:35:03.542Z,67.53
2019-03-25T09:39:09.856Z,65.20
2019-03-25T09:43:16.285Z,65.05
2019-03-25T09:47:22.596Z,63.47
2019-03-25T09:51:28.912Z,62.73
2019-03-25T09:55:35.385Z,61.16
2019-03-25T09:59:41.673Z,62.00
2019-03-25T10:03:48.019Z,62.15
2019-03-25T10:07:54.315Z,63.52
2019-03-25T10:12:00.759Z,65.64
2019-03-25T10:16:07.588Z,67.94
2019-03-25T10:20:14.001Z,72.87
2019-03-25T10:24:27.418Z,72.58
2019-03-25T10:28:28.251Z,69.71
2019-03-25T10:32:34.456Z,68.64
2019-03-25T10:36:40.710Z,66.58
2019-03-25T10:40:47.001Z,65.02
2019-03-25T10:44:53.452Z,65.51
2019-03-25T10:48:59.702Z,63.16
2019-03-25T10:53:07.197Z,61.80
2019-03-25T10:57:13.591Z,62.18
2019-03-25T11:01:19.958Z,61.78
2019-03-25T11:05:26.296Z,60.14
2019-03-25T11:09:32.687Z,58.86
2019-03-25T11:13:39.015Z,59.06
2019-03-25T11:17:45.304Z,60.42
2019-03-25T11:21:52.637Z,73.34
2019-03-25T11:26:00.394Z,76.40
2019-03-25T11:30:09.248Z,77.84
2019-03-25T11:34:15.926Z,76.74
2019-03-25T11:38:22.263Z,73.99
2019-03-25T11:42:28.809Z,72.84
2019-03-25T11:46:35.432Z,70.96
2019-03-25T11:50:41.969Z,69.99
2019-03-25T11:54:48.266Z,68.89
2019-03-25T11:58:54.546Z,68.91
2019-03-25T12:03:00.949Z,65.87
2019-03-25T12:07:07.324Z,64.68
2019-03-25T12:11:13.589Z,64.79
2019-03-25T12:15:19.864Z,63.97
2019-03-25T12:19:26.204Z,61.70
2019-03-25T12:23:33.481Z,63.65
2019-03-25T12:27:39.754Z,63.53
2019-03-25T12:31:46.150Z,67.71
2019-03-25T12:35:52.734Z,68.33
2019-03-25T12:39:59.139Z,68.63
2019-03-25T12:44:05.718Z,68.48
2019-03-25T12:48:17.951Z,68.51
2019-03-25T12:52:24.239Z,68.39
2019-03-25T12:56:30.546Z,68.12
2019-03-25T13:00:43.411Z,66.24
2019-03-25T13:04:51.073Z,67.00
2019-03-25T13:09:00.043Z,66.11
2019-03-25T13:13:14.166Z,66.31
2019-03-25T13:17:20.543Z,66.60
2019-03-25T13:22:25.729Z,65.36
2019-03-25T13:26:34.222Z,65.70
2019-03-25T13:30:43.536Z,65.97
2019-03-25T13:34:54.714Z,65.59
2019-03-25T13:39:09.376Z,65.22
2019-03-25T13:43:16.143Z,65.32
2019-03-25T13:47:23.851Z,63.62
2019-03-25T13:51:30.184Z,64.07
2019-03-25T13:55:37.080Z,63.73
2019-03-25T13:59:43.488Z,64.38
2019-03-25T14:03:49.698Z,63.21
2019-03-25T14:07:56.038Z,61.19
2019-03-25T14:12:02.471Z,63.81
2019-03-25T14:16:08.974Z,67.58
2019-03-25T14:20:17.317Z,69.57
2019-03-25T14:24:23.824Z,68.18
2019-03-25T14:28:42.314Z,72.00
2019-03-25T14:32:48.542Z,73.99
2019-03-25T14:36:54.901Z,74.35
2019-03-25T14:41:01.217Z,71.73
2019-03-25T14:45:09.562Z,68.10
2019-03-25T14:49:15.828Z,67.50
2019-03-25T14:53:22.696Z,65.88
2019-03-25T14:57:29.014Z,66.59
2019-03-25T15:01:35.527Z,64.31
2019-03-25T15:05:41.832Z,61.73
2019-03-25T15:09:48.323Z,61.42
2019-03-25T15:13:54.681Z,61.33
2019-03-25T15:18:00.954Z,61.38
2019-03-25T15:22:07.212Z,62.03
2019-03-25T15:26:13.504Z,62.02
2019-03-25T15:30:20.781Z,61.97
2019-03-25T15:34:26.987Z,64.63
2019-03-25T15:38:33.670Z,66.15
2019-03-25T15:42:40.761Z,67.71
2019-03-25T15:46:55.287Z,67.59
2019-03-25T15:50:54.940Z,67.40
2019-03-25T15:55:01.329Z,68.57
2019-03-25T15:59:07.701Z,68.39
2019-03-25T16:03:14.004Z,67.80
2019-03-25T16:07:39.303Z,67.38
2019-03-25T16:11:45.607Z,67.58
2019-03-25T16:15:51.927Z,67.76
2019-03-25T16:19:58.221Z,67.79
2019-03-25T16:24:04.500Z,68.16
2019-03-25T16:28:15.648Z,66.31
2019-03-25T16:32:20.885Z,66.93
2019-03-25T16:36:27.277Z,67.49
2019-03-25T16:40:33.617Z,67.72
2019-03-25T16:44:40.900Z,67.59
2019-03-25T16:48:47.216Z,68.41
2019-03-25T16:52:53.513Z,67.41
2019-03-25T16:56:59.904Z,67.43
2019-03-25T17:01:15.535Z,67.38
2019-03-25T17:05:21.814Z,66.25
2019-03-25T17:09:28.138Z,65.83
2019-03-25T17:13:34.887Z,66.52
2019-03-25T17:17:41.163Z,64.41
2019-03-25T17:21:57.737Z,62.56
2019-03-25T17:25:55.904Z,62.36
2019-03-25T17:30:02.157Z,62.07
2019-03-25T17:34:08.458Z,63.01
2019-03-25T17:38:14.906Z,63.40
2019-03-25T17:42:21.211Z,63.86
2019-03-25T17:46:27.560Z,63.74
2019-03-25T17:50:33.969Z,63.61
2019-03-25T17:54:41.623Z,63.22
2019-03-25T17:58:51.109Z,62.23
2019-03-25T18:02:57.469Z,61.91
2019-03-25T18:07:03.847Z,62.05
2019-03-25T18:11:10.478Z,62.17
2019-03-25T18:15:17.074Z,62.65
2019-03-25T18:19:25.491Z,61.78
2019-03-25T18:23:31.643Z,61.86
2019-03-25T18:27:38.215Z,61.98
2019-03-25T18:31:45.637Z,61.70
2019-03-25T18:35:51.965Z,62.15
2019-03-25T18:39:58.125Z,61.99
2019-03-25T18:44:06.809Z,61.81
2019-03-25T18:48:13.143Z,62.12
2019-03-25T18:52:19.673Z,63.06
2019-03-25T18:56:25.985Z,63.34
2019-03-25T19:00:36.082Z,62.98
2019-03-25T19:04:42.435Z,63.78
2019-03-25T19:08:49.410Z,62.88
2019-03-25T19:12:56.666Z,63.45
2019-03-25T19:17:05.523Z,63.91
2019-03-25T19:21:11.997Z,64.39
2019-03-25T19:25:19.303Z,65.30
2019-03-25T19:29:25.906Z,65.04
2019-03-25T19:33:32.248Z,65.23
2019-03-25T19:37:38.580Z,65.86
2019-03-25T19:41:44.850Z,66.04
2019-03-25T19:45:52.359Z,66.18
2019-03-25T19:49:59.076Z,66.14
2019-03-25T19:54:05.580Z,66.42
2019-03-25T19:58:13.475Z,66.71
2019-03-25T20:02:19.976Z,66.70
2019-03-25T20:06:26.723Z,66.87
2019-03-25T20:10:35.458Z,66.50
2019-03-25T20:14:41.998Z,66.84
2019-03-25T20:18:48.471Z,66.61
2019-03-25T20:22:55.000Z,66.79
2019-03-25T20:27:01.443Z,66.54
2019-03-25T20:31:07.962Z,66.59
2019-03-25T20:35:16.668Z,66.86
2019-03-25T20:39:23.281Z,66.85
2019-03-25T20:43:32.973Z,66.55
2019-03-25T20:47:39.639Z,66.84
2019-03-25T20:51:46.066Z,67.38
2019-03-25T20:55:52.593Z,67.47
2019-03-25T21:00:02.274Z,67.38
2019-03-25T21:04:08.825Z,67.96
2019-03-25T21:08:17.222Z,68.12
2019-03-25T21:12:25.901Z,68.00
2019-03-25T21:16:33.954Z,68.08
2019-03-25T21:20:40.401Z,67.93
2019-03-25T21:24:48.514Z,68.01
2019-03-25T21:28:55.068Z,68.33
2019-03-25T21:33:01.835Z,68.39
2019-03-25T21:37:10.468Z,68.96
2019-03-25T21:41:19.615Z,69.00
2019-03-25T21:45:26.178Z,69.07
2019-03-25T21:49:32.490Z,69.14
2019-03-25T21:53:38.706Z,69.23
2019-03-25T21:57:45.056Z,69.21
2019-03-25T22:01:51.347Z,68.95
2019-03-25T22:05:57.923Z,70.03
2019-03-25T22:10:04.400Z,69.47
2019-03-25T22:14:11.016Z,68.95
2019-03-25T22:18:17.299Z,68.96
2019-03-25T22:22:23.534Z,69.01
2019-03-25T22:26:29.875Z,68.73
2019-03-25T22:30:36.087Z,69.36
2019-03-25T22:34:42.437Z,69.03
2019-03-25T22:38:49.123Z,69.17
2019-03-25T22:42:55.814Z,68.95
2019-03-25T22:47:02.204Z,68.35
2019-03-25T22:51:08.532Z,68.52
2019-03-25T22:55:16.877Z,68.78
2019-03-25T22:59:23.229Z,68.40
2019-03-25T23:03:39.011Z,68.00
2019-03-25T23:07:37.856Z,67.71
2019-03-25T23:11:44.454Z,67.35
2019-03-25T23:15:50.810Z,67.76
2019-03-25T23:19:57.114Z,67.60
2019-03-25T23:24:03.462Z,67.90
2019-03-25T23:28:11.217Z,67.92
2019-03-25T23:32:17.567Z,67.79
2019-03-25T23:36:23.987Z,67.61
2019-03-25T23:40:30.700Z,67.34
2019-03-25T23:44:37.086Z,67.10
2019-03-25T23:48:43.696Z,67.43
2019-03-25T23:52:50.118Z,66.92
2019-03-25T23:56:56.457Z,66.84
